sensor_id;sensor_type;location;lat;lon;timestamp;P1;durP1;ratioP1;P2;durP2;ratioP2
58685;SDS011;44465;53.206;-6.106;2022-08-21T00:02:18;6.13;;;2.60;;
58685;SDS011;44465;53.206;-6.106;2022-08-21T00:04:45;13.30;;;3.28;;
58685;SDS011;44465;53.206;-6.106;2022-08-21T00:07:11;8.00;;;2.25;;
58685;SDS011;44465;53.206;-6.106;2022-08-21T00:09:37;6.57;;;2.50;;
58685;SDS011;44465;53.206;-6.106;2022-08-21T00:12:03;7.30;;;2.35;;
58685;SDS011;44465;53.206;-6.106;2022-08-21T00:14:28;7.47;;;2.90;;
58685;SDS011;44465;53.206;-6.106;2022-08-21T00:16:54;9.07;;;2.50;;
58685;SDS011;44465;53.206;-6.106;2022-08-21T00:19:20;5.28;;;2.65;;
58685;SDS011;44465;53.206;-6.106;2022-08-21T00:21:50;5.40;;;2.25;;
58685;SDS011;44465;53.206;-6.106;2022-08-21T00:24:17;7.18;;;2.53;;
58685;SDS011;44465;53.206;-6.106;2022-08-21T00:26:43;7.63;;;2.13;;
58685;SDS011;44465;53.206;-6.106;2022-08-21T00:29:09;9.63;;;2.13;;
58685;SDS011;44465;53.206;-6.106;2022-08-21T00:31:35;5.40;;;1.80;;
58685;SDS011;44465;53.206;-6.106;2022-08-21T00:34:01;5.00;;;1.83;;
58685;SDS011;44465;53.206;-6.106;2022-08-21T00:36:28;2.97;;;1.63;;
58685;SDS011;44465;53.206;-6.106;2022-08-21T00:38:54;4.10;;;1.70;;
58685;SDS011;44465;53.206;-6.106;2022-08-21T00:41:20;7.88;;;2.15;;
58685;SDS011;44465;53.206;-6.106;2022-08-21T00:43:46;2.95;;;1.70;;
58685;SDS011;44465;53.206;-6.106;2022-08-21T00:46:11;4.95;;;2.25;;
58685;SDS011;44465;53.206;-6.106;2022-08-21T00:48:37;4.00;;;1.80;;
58685;SDS011;44465;53.206;-6.106;2022-08-21T00:51:05;6.28;;;1.83;;
58685;SDS011;44465;53.206;-6.106;2022-08-21T00:53:51;5.47;;;1.88;;
58685;SDS011;44465;53.206;-6.106;2022-08-21T00:56:21;5.25;;;1.75;;
58685;SDS011;44465;53.206;-6.106;2022-08-21T00:58:49;4.75;;;2.08;;
58685;SDS011;44465;53.206;-6.106;2022-08-21T01:01:16;5.00;;;1.83;;
58685;SDS011;44465;53.206;-6.106;2022-08-21T01:03:42;6.30;;;1.88;;
58685;SDS011;44465;53.206;-6.106;2022-08-21T01:06:07;3.47;;;1.80;;
58685;SDS011;44465;53.206;-6.106;2022-08-21T01:08:34;3.75;;;1.58;;
58685;SDS011;44465;53.206;-6.106;2022-08-21T01:10:59;5.53;;;2.03;;
58685;SDS011;44465;53.206;-6.106;2022-08-21T01:13:27;5.70;;;1.90;;
58685;SDS011;44465;53.206;-6.106;2022-08-21T01:15:55;3.20;;;1.70;;
58685;SDS011;44465;53.206;-6.106;2022-08-21T01:18:24;3.65;;;1.52;;
58685;SDS011;44465;53.206;-6.106;2022-08-21T01:20:58;6.90;;;1.70;;
58685;SDS011;44465;53.206;-6.106;2022-08-21T01:23:23;5.13;;;2.22;;
58685;SDS011;44465;53.206;-6.106;2022-08-21T01:25:49;3.80;;;1.73;;
58685;SDS011;44465;53.206;-6.106;2022-08-21T01:28:14;3.35;;;1.80;;
58685;SDS011;44465;53.206;-6.106;2022-08-21T01:30:40;2.88;;;1.88;;
58685;SDS011;44465;53.206;-6.106;2022-08-21T01:33:08;3.95;;;1.70;;
58685;SDS011;44465;53.206;-6.106;2022-08-21T01:35:35;4.45;;;1.77;;
58685;SDS011;44465;53.206;-6.106;2022-08-21T01:38:00;3.00;;;1.40;;
58685;SDS011;44465;53.206;-6.106;2022-08-21T01:40:26;3.20;;;1.23;;
58685;SDS011;44465;53.206;-6.106;2022-08-21T01:42:52;6.93;;;1.67;;
58685;SDS011;44465;53.206;-6.106;2022-08-21T01:45:18;3.88;;;1.65;;
58685;SDS011;44465;53.206;-6.106;2022-08-21T01:47:44;3.33;;;1.50;;
58685;SDS011;44465;53.206;-6.106;2022-08-21T01:50:11;1.92;;;1.25;;
58685;SDS011;44465;53.206;-6.106;2022-08-21T01:52:39;3.70;;;1.38;;
58685;SDS011;44465;53.206;-6.106;2022-08-21T01:55:05;2.90;;;1.42;;
58685;SDS011;44465;53.206;-6.106;2022-08-21T01:57:31;4.22;;;1.55;;
58685;SDS011;44465;53.206;-6.106;2022-08-21T01:59:58;4.00;;;1.20;;
58685;SDS011;44465;53.206;-6.106;2022-08-21T02:02:24;3.50;;;1.67;;
58685;SDS011;44465;53.206;-6.106;2022-08-21T02:04:49;6.65;;;1.65;;
58685;SDS011;44465;53.206;-6.106;2022-08-21T02:07:15;3.42;;;1.50;;
58685;SDS011;44465;53.206;-6.106;2022-08-21T02:09:40;5.45;;;1.70;;
58685;SDS011;44465;53.206;-6.106;2022-08-21T02:12:07;1.70;;;1.10;;
58685;SDS011;44465;53.206;-6.106;2022-08-21T02:14:34;3.73;;;1.50;;
58685;SDS011;44465;53.206;-6.106;2022-08-21T02:17:00;2.47;;;1.55;;
58685;SDS011;44465;53.206;-6.106;2022-08-21T02:19:25;2.35;;;1.27;;
58685;SDS011;44465;53.206;-6.106;2022-08-21T02:21:51;3.55;;;1.45;;
58685;SDS011;44465;53.206;-6.106;2022-08-21T02:24:16;4.55;;;1.25;;
58685;SDS011;44465;53.206;-6.106;2022-08-21T02:26:42;3.38;;;1.77;;
58685;SDS011;44465;53.206;-6.106;2022-08-21T02:29:07;3.17;;;1.50;;
58685;SDS011;44465;53.206;-6.106;2022-08-21T02:31:33;3.95;;;1.60;;
58685;SDS011;44465;53.206;-6.106;2022-08-21T02:33:58;1.45;;;1.10;;
58685;SDS011;44465;53.206;-6.106;2022-08-21T02:36:24;1.60;;;1.20;;
58685;SDS011;44465;53.206;-6.106;2022-08-21T02:38:50;3.05;;;1.52;;
58685;SDS011;44465;53.206;-6.106;2022-08-21T02:41:17;4.18;;;1.40;;
58685;SDS011;44465;53.206;-6.106;2022-08-21T02:43:44;4.28;;;1.60;;
58685;SDS011;44465;53.206;-6.106;2022-08-21T02:46:11;2.40;;;0.98;;
58685;SDS011;44465;53.206;-6.106;2022-08-21T02:48:39;1.88;;;1.25;;
58685;SDS011;44465;53.206;-6.106;2022-08-21T02:51:09;3.08;;;1.20;;
58685;SDS011;44465;53.206;-6.106;2022-08-21T02:53:42;3.42;;;1.73;;
58685;SDS011;44465;53.206;-6.106;2022-08-21T02:56:09;1.63;;;1.50;;
58685;SDS011;44465;53.206;-6.106;2022-08-21T02:58:38;1.58;;;1.17;;
58685;SDS011;44465;53.206;-6.106;2022-08-21T03:01:07;3.25;;;1.35;;
58685;SDS011;44465;53.206;-6.106;2022-08-21T03:03:37;3.10;;;1.45;;
58685;SDS011;44465;53.206;-6.106;2022-08-21T03:06:05;4.30;;;1.40;;
58685;SDS011;44465;53.206;-6.106;2022-08-21T03:08:31;2.92;;;1.17;;
58685;SDS011;44465;53.206;-6.106;2022-08-21T03:10:57;1.38;;;1.05;;
58685;SDS011;44465;53.206;-6.106;2022-08-21T03:13:26;3.40;;;1.52;;
58685;SDS011;44465;53.206;-6.106;2022-08-21T03:15:52;4.18;;;1.48;;
58685;SDS011;44465;53.206;-6.106;2022-08-21T03:18:17;2.53;;;1.20;;
58685;SDS011;44465;53.206;-6.106;2022-08-21T03:20:43;3.15;;;1.52;;
58685;SDS011;44465;53.206;-6.106;2022-08-21T03:23:10;3.42;;;1.40;;
58685;SDS011;44465;53.206;-6.106;2022-08-21T03:25:36;4.25;;;2.05;;
58685;SDS011;44465;53.206;-6.106;2022-08-21T03:28:02;2.28;;;1.13;;
58685;SDS011;44465;53.206;-6.106;2022-08-21T03:30:29;2.33;;;1.13;;
58685;SDS011;44465;53.206;-6.106;2022-08-21T03:32:56;3.97;;;1.52;;
58685;SDS011;44465;53.206;-6.106;2022-08-21T03:35:23;2.70;;;1.25;;
58685;SDS011;44465;53.206;-6.106;2022-08-21T03:37:49;3.95;;;1.17;;
58685;SDS011;44465;53.206;-6.106;2022-08-21T03:40:15;3.60;;;1.50;;
58685;SDS011;44465;53.206;-6.106;2022-08-21T03:42:42;3.00;;;1.25;;
58685;SDS011;44465;53.206;-6.106;2022-08-21T03:45:08;4.80;;;1.48;;
58685;SDS011;44465;53.206;-6.106;2022-08-21T03:47:35;2.90;;;1.35;;
58685;SDS011;44465;53.206;-6.106;2022-08-21T03:50:01;3.25;;;1.40;;
58685;SDS011;44465;53.206;-6.106;2022-08-21T03:52:28;3.10;;;1.20;;
58685;SDS011;44465;53.206;-6.106;2022-08-21T03:54:54;2.97;;;1.80;;
58685;SDS011;44465;53.206;-6.106;2022-08-21T03:57:19;1.67;;;1.10;;
58685;SDS011;44465;53.206;-6.106;2022-08-21T03:59:46;2.63;;;1.30;;
58685;SDS011;44465;53.206;-6.106;2022-08-21T04:02:12;2.88;;;1.10;;
58685;SDS011;44465;53.206;-6.106;2022-08-21T04:04:42;2.28;;;1.08;;
58685;SDS011;44465;53.206;-6.106;2022-08-21T04:07:07;1.30;;;1.20;;
58685;SDS011;44465;53.206;-6.106;2022-08-21T04:09:33;3.58;;;1.08;;
58685;SDS011;44465;53.206;-6.106;2022-08-21T04:11:58;2.35;;;1.10;;
58685;SDS011;44465;53.206;-6.106;2022-08-21T04:14:25;1.42;;;1.00;;
58685;SDS011;44465;53.206;-6.106;2022-08-21T04:16:50;3.80;;;1.05;;
58685;SDS011;44465;53.206;-6.106;2022-08-21T04:19:15;3.15;;;1.27;;
58685;SDS011;44465;53.206;-6.106;2022-08-21T04:21:41;2.55;;;1.42;;
58685;SDS011;44465;53.206;-6.106;2022-08-21T04:24:08;3.58;;;1.33;;
58685;SDS011;44465;53.206;-6.106;2022-08-21T04:26:38;2.85;;;1.13;;
58685;SDS011;44465;53.206;-6.106;2022-08-21T04:29:04;2.00;;;1.30;;
58685;SDS011;44465;53.206;-6.106;2022-08-21T04:31:32;2.65;;;1.10;;
58685;SDS011;44465;53.206;-6.106;2022-08-21T04:33:58;4.85;;;1.30;;
58685;SDS011;44465;53.206;-6.106;2022-08-21T04:36:24;2.13;;;1.25;;
58685;SDS011;44465;53.206;-6.106;2022-08-21T04:38:49;2.78;;;1.27;;
58685;SDS011;44465;53.206;-6.106;2022-08-21T04:41:15;3.70;;;1.17;;
58685;SDS011;44465;53.206;-6.106;2022-08-21T04:43:40;3.10;;;1.08;;
58685;SDS011;44465;53.206;-6.106;2022-08-21T04:46:06;6.32;;;1.35;;
58685;SDS011;44465;53.206;-6.106;2022-08-21T04:48:31;1.83;;;1.00;;
58685;SDS011;44465;53.206;-6.106;2022-08-21T04:51:15;3.50;;;1.23;;
58685;SDS011;44465;53.206;-6.106;2022-08-21T04:53:51;2.17;;;0.88;;
58685;SDS011;44465;53.206;-6.106;2022-08-21T04:56:31;2.85;;;1.23;;
58685;SDS011;44465;53.206;-6.106;2022-08-21T04:59:03;4.32;;;1.33;;
58685;SDS011;44465;53.206;-6.106;2022-08-21T05:01:32;4.15;;;1.25;;
58685;SDS011;44465;53.206;-6.106;2022-08-21T05:04:01;1.45;;;0.90;;
58685;SDS011;44465;53.206;-6.106;2022-08-21T05:06:30;4.50;;;1.30;;
58685;SDS011;44465;53.206;-6.106;2022-08-21T05:08:58;1.58;;;0.95;;
58685;SDS011;44465;53.206;-6.106;2022-08-21T05:11:26;2.72;;;1.20;;
58685;SDS011;44465;53.206;-6.106;2022-08-21T05:13:52;3.38;;;1.08;;
58685;SDS011;44465;53.206;-6.106;2022-08-21T05:16:17;3.25;;;1.23;;
58685;SDS011;44465;53.206;-6.106;2022-08-21T05:18:43;2.45;;;1.40;;
58685;SDS011;44465;53.206;-6.106;2022-08-21T05:21:08;1.80;;;1.35;;
58685;SDS011;44465;53.206;-6.106;2022-08-21T05:23:35;2.70;;;1.10;;
58685;SDS011;44465;53.206;-6.106;2022-08-21T05:26:01;2.30;;;1.17;;
58685;SDS011;44465;53.206;-6.106;2022-08-21T05:28:26;3.97;;;1.00;;
58685;SDS011;44465;53.206;-6.106;2022-08-21T05:30:52;1.63;;;0.95;;
58685;SDS011;44465;53.206;-6.106;2022-08-21T05:33:18;2.22;;;1.00;;
58685;SDS011;44465;53.206;-6.106;2022-08-21T05:35:44;3.40;;;1.00;;
58685;SDS011;44465;53.206;-6.106;2022-08-21T05:38:10;2.13;;;1.17;;
58685;SDS011;44465;53.206;-6.106;2022-08-21T05:40:35;3.47;;;1.45;;
58685;SDS011;44465;53.206;-6.106;2022-08-21T05:43:01;1.77;;;0.80;;
58685;SDS011;44465;53.206;-6.106;2022-08-21T05:45:28;3.53;;;1.52;;
58685;SDS011;44465;53.206;-6.106;2022-08-21T05:47:56;3.60;;;1.30;;
58685;SDS011;44465;53.206;-6.106;2022-08-21T05:50:22;2.00;;;1.00;;
58685;SDS011;44465;53.206;-6.106;2022-08-21T05:52:47;3.20;;;1.33;;
58685;SDS011;44465;53.206;-6.106;2022-08-21T05:55:13;3.42;;;0.90;;
58685;SDS011;44465;53.206;-6.106;2022-08-21T05:57:39;3.92;;;0.98;;
58685;SDS011;44465;53.206;-6.106;2022-08-21T06:00:08;2.70;;;1.20;;
58685;SDS011;44465;53.206;-6.106;2022-08-21T06:02:38;2.72;;;0.90;;
58685;SDS011;44465;53.206;-6.106;2022-08-21T06:05:04;2.22;;;1.13;;
58685;SDS011;44465;53.206;-6.106;2022-08-21T06:07:30;2.65;;;1.33;;
58685;SDS011;44465;53.206;-6.106;2022-08-21T06:09:56;2.28;;;1.00;;
58685;SDS011;44465;53.206;-6.106;2022-08-21T06:12:21;2.55;;;1.00;;
58685;SDS011;44465;53.206;-6.106;2022-08-21T06:14:47;3.38;;;1.05;;
58685;SDS011;44465;53.206;-6.106;2022-08-21T06:17:13;2.25;;;1.00;;
58685;SDS011;44465;53.206;-6.106;2022-08-21T06:19:40;3.03;;;1.15;;
58685;SDS011;44465;53.206;-6.106;2022-08-21T06:22:05;1.83;;;0.93;;
58685;SDS011;44465;53.206;-6.106;2022-08-21T06:24:32;2.97;;;0.90;;
58685;SDS011;44465;53.206;-6.106;2022-08-21T06:27:03;3.20;;;1.25;;
58685;SDS011;44465;53.206;-6.106;2022-08-21T06:29:29;1.88;;;1.02;;
58685;SDS011;44465;53.206;-6.106;2022-08-21T06:31:55;3.00;;;1.15;;
58685;SDS011;44465;53.206;-6.106;2022-08-21T06:34:21;1.95;;;1.13;;
58685;SDS011;44465;53.206;-6.106;2022-08-21T06:36:46;1.88;;;1.05;;
58685;SDS011;44465;53.206;-6.106;2022-08-21T06:39:12;2.08;;;1.05;;
58685;SDS011;44465;53.206;-6.106;2022-08-21T06:41:38;2.67;;;1.17;;
58685;SDS011;44465;53.206;-6.106;2022-08-21T06:44:04;1.83;;;1.10;;
58685;SDS011;44465;53.206;-6.106;2022-08-21T06:46:30;2.28;;;1.38;;
58685;SDS011;44465;53.206;-6.106;2022-08-21T06:48:56;2.92;;;1.08;;
58685;SDS011;44465;53.206;-6.106;2022-08-21T06:51:22;2.78;;;1.38;;
58685;SDS011;44465;53.206;-6.106;2022-08-21T06:53:50;3.10;;;1.10;;
58685;SDS011;44465;53.206;-6.106;2022-08-21T06:56:16;5.70;;;1.25;;
58685;SDS011;44465;53.206;-6.106;2022-08-21T06:58:42;2.25;;;1.48;;
58685;SDS011;44465;53.206;-6.106;2022-08-21T07:01:07;1.80;;;1.10;;
58685;SDS011;44465;53.206;-6.106;2022-08-21T07:03:35;5.22;;;1.27;;
58685;SDS011;44465;53.206;-6.106;2022-08-21T07:06:03;1.60;;;0.82;;
58685;SDS011;44465;53.206;-6.106;2022-08-21T07:08:30;4.90;;;1.58;;
58685;SDS011;44465;53.206;-6.106;2022-08-21T07:10:56;1.73;;;0.88;;
58685;SDS011;44465;53.206;-6.106;2022-08-21T07:13:23;2.20;;;1.40;;
58685;SDS011;44465;53.206;-6.106;2022-08-21T07:15:49;2.53;;;0.80;;
58685;SDS011;44465;53.206;-6.106;2022-08-21T07:18:15;1.55;;;1.13;;
58685;SDS011;44465;53.206;-6.106;2022-08-21T07:20:40;1.95;;;0.82;;
58685;SDS011;44465;53.206;-6.106;2022-08-21T07:23:28;2.58;;;1.20;;
58685;SDS011;44465;53.206;-6.106;2022-08-21T07:25:56;1.95;;;1.02;;
58685;SDS011;44465;53.206;-6.106;2022-08-21T07:28:24;3.42;;;0.98;;
58685;SDS011;44465;53.206;-6.106;2022-08-21T07:30:50;1.85;;;1.15;;
58685;SDS011;44465;53.206;-6.106;2022-08-21T07:33:17;1.80;;;0.95;;
58685;SDS011;44465;53.206;-6.106;2022-08-21T07:35:43;2.10;;;1.10;;
58685;SDS011;44465;53.206;-6.106;2022-08-21T07:38:08;3.28;;;1.38;;
58685;SDS011;44465;53.206;-6.106;2022-08-21T07:40:34;1.75;;;1.00;;
58685;SDS011;44465;53.206;-6.106;2022-08-21T07:42:59;2.03;;;0.90;;
58685;SDS011;44465;53.206;-6.106;2022-08-21T07:45:25;2.78;;;1.25;;
58685;SDS011;44465;53.206;-6.106;2022-08-21T07:47:51;2.75;;;1.00;;
58685;SDS011;44465;53.206;-6.106;2022-08-21T07:50:17;1.17;;;0.70;;
58685;SDS011;44465;53.206;-6.106;2022-08-21T07:52:43;2.78;;;0.80;;
58685;SDS011;44465;53.206;-6.106;2022-08-21T07:55:09;1.73;;;0.82;;
58685;SDS011;44465;53.206;-6.106;2022-08-21T07:57:37;2.53;;;1.20;;
58685;SDS011;44465;53.206;-6.106;2022-08-21T08:00:04;2.92;;;0.80;;
58685;SDS011;44465;53.206;-6.106;2022-08-21T08:02:37;2.60;;;1.17;;
58685;SDS011;44465;53.206;-6.106;2022-08-21T08:05:03;1.23;;;0.90;;
58685;SDS011;44465;53.206;-6.106;2022-08-21T08:09:56;1.48;;;0.90;;
58685;SDS011;44465;53.206;-6.106;2022-08-21T08:12:23;1.63;;;0.70;;
58685;SDS011;44465;53.206;-6.106;2022-08-21T08:14:55;1.10;;;0.85;;
58685;SDS011;44465;53.206;-6.106;2022-08-21T08:17:21;0.95;;;0.75;;
58685;SDS011;44465;53.206;-6.106;2022-08-21T08:19:48;1.90;;;0.93;;
58685;SDS011;44465;53.206;-6.106;2022-08-21T08:22:18;1.35;;;0.88;;
58685;SDS011;44465;53.206;-6.106;2022-08-21T08:24:46;1.35;;;0.88;;
58685;SDS011;44465;53.206;-6.106;2022-08-21T08:27:13;1.48;;;0.90;;
58685;SDS011;44465;53.206;-6.106;2022-08-21T08:29:39;0.95;;;0.80;;
58685;SDS011;44465;53.206;-6.106;2022-08-21T08:32:05;1.52;;;0.68;;
58685;SDS011;44465;53.206;-6.106;2022-08-21T08:34:32;2.22;;;1.02;;
58685;SDS011;44465;53.206;-6.106;2022-08-21T08:36:58;1.10;;;0.65;;
58685;SDS011;44465;53.206;-6.106;2022-08-21T08:39:24;1.40;;;0.77;;
58685;SDS011;44465;53.206;-6.106;2022-08-21T08:41:52;1.20;;;0.87;;
58685;SDS011;44465;53.206;-6.106;2022-08-21T08:44:24;2.38;;;0.90;;
58685;SDS011;44465;53.206;-6.106;2022-08-21T08:46:50;2.13;;;1.00;;
58685;SDS011;44465;53.206;-6.106;2022-08-21T08:49:20;1.00;;;0.52;;
58685;SDS011;44465;53.206;-6.106;2022-08-21T08:52:11;1.65;;;0.60;;
58685;SDS011;44465;53.206;-6.106;2022-08-21T08:54:49;0.80;;;0.80;;
58685;SDS011;44465;53.206;-6.106;2022-08-21T08:57:23;1.83;;;0.88;;
58685;SDS011;44465;53.206;-6.106;2022-08-21T08:59:52;2.03;;;1.00;;
58685;SDS011;44465;53.206;-6.106;2022-08-21T09:02:21;1.15;;;0.88;;
58685;SDS011;44465;53.206;-6.106;2022-08-21T09:04:52;3.10;;;0.93;;
58685;SDS011;44465;53.206;-6.106;2022-08-21T09:10:10;4.47;;;1.48;;
58685;SDS011;44465;53.206;-6.106;2022-08-21T09:24:06;3.58;;;0.93;;
58685;SDS011;44465;53.206;-6.106;2022-08-21T09:27:00;5.03;;;1.25;;
58685;SDS011;44465;53.206;-6.106;2022-08-21T09:29:27;1.20;;;0.70;;
58685;SDS011;44465;53.206;-6.106;2022-08-21T09:31:56;3.15;;;1.00;;
58685;SDS011;44465;53.206;-6.106;2022-08-21T09:34:26;2.30;;;1.00;;
58685;SDS011;44465;53.206;-6.106;2022-08-21T09:36:54;5.88;;;1.17;;
58685;SDS011;44465;53.206;-6.106;2022-08-21T09:39:31;7.33;;;1.33;;
58685;SDS011;44465;53.206;-6.106;2022-08-21T09:42:03;6.30;;;1.40;;
58685;SDS011;44465;53.206;-6.106;2022-08-21T09:44:32;3.90;;;1.10;;
58685;SDS011;44465;53.206;-6.106;2022-08-21T09:47:01;9.50;;;1.45;;
58685;SDS011;44465;53.206;-6.106;2022-08-21T09:49:30;2.00;;;0.82;;
58685;SDS011;44465;53.206;-6.106;2022-08-21T09:51:57;12.80;;;2.10;;
58685;SDS011;44465;53.206;-6.106;2022-08-21T09:54:29;10.55;;;1.50;;
58685;SDS011;44465;53.206;-6.106;2022-08-21T09:59:52;4.72;;;1.08;;
58685;SDS011;44465;53.206;-6.106;2022-08-21T10:04:54;8.20;;;1.50;;
58685;SDS011;44465;53.206;-6.106;2022-08-21T10:07:22;5.28;;;1.50;;
58685;SDS011;44465;53.206;-6.106;2022-08-21T10:10:07;17.05;;;2.67;;
58685;SDS011;44465;53.206;-6.106;2022-08-21T10:15:08;22.60;;;3.83;;
58685;SDS011;44465;53.206;-6.106;2022-08-21T10:34:44;10.73;;;2.30;;
58685;SDS011;44465;53.206;-6.106;2022-08-21T10:40:15;9.27;;;2.08;;
58685;SDS011;44465;53.206;-6.106;2022-08-21T10:42:58;5.30;;;1.70;;
58685;SDS011;44465;53.206;-6.106;2022-08-21T10:51:05;9.57;;;2.05;;
58685;SDS011;44465;53.206;-6.106;2022-08-21T10:56:13;8.07;;;1.90;;
58685;SDS011;44465;53.206;-6.106;2022-08-21T10:58:47;8.10;;;1.70;;
58685;SDS011;44465;53.206;-6.106;2022-08-21T11:04:30;8.80;;;1.33;;
58685;SDS011;44465;53.206;-6.106;2022-08-21T11:07:02;4.15;;;1.08;;
58685;SDS011;44465;53.206;-6.106;2022-08-21T11:09:31;9.00;;;1.55;;
58685;SDS011;44465;53.206;-6.106;2022-08-21T11:12:03;5.20;;;1.40;;
58685;SDS011;44465;53.206;-6.106;2022-08-21T11:14:49;4.13;;;0.90;;
58685;SDS011;44465;53.206;-6.106;2022-08-21T11:17:45;5.43;;;1.73;;
58685;SDS011;44465;53.206;-6.106;2022-08-21T11:23:05;3.83;;;1.15;;
58685;SDS011;44465;53.206;-6.106;2022-08-21T11:25:39;5.20;;;1.60;;
58685;SDS011;44465;53.206;-6.106;2022-08-21T11:28:09;2.53;;;1.23;;
58685;SDS011;44465;53.206;-6.106;2022-08-21T11:47:54;8.30;;;1.80;;
58685;SDS011;44465;53.206;-6.106;2022-08-21T11:50:30;10.27;;;1.70;;
58685;SDS011;44465;53.206;-6.106;2022-08-21T11:53:01;15.05;;;1.90;;
58685;SDS011;44465;53.206;-6.106;2022-08-21T11:55:31;11.07;;;1.85;;
58685;SDS011;44465;53.206;-6.106;2022-08-21T11:58:09;4.40;;;1.45;;
58685;SDS011;44465;53.206;-6.106;2022-08-21T12:00:53;5.60;;;1.77;;
58685;SDS011;44465;53.206;-6.106;2022-08-21T12:06:07;3.28;;;0.80;;
58685;SDS011;44465;53.206;-6.106;2022-08-21T12:08:36;3.58;;;1.30;;
58685;SDS011;44465;53.206;-6.106;2022-08-21T12:11:05;6.20;;;1.70;;
58685;SDS011;44465;53.206;-6.106;2022-08-21T12:13:55;4.82;;;1.40;;
58685;SDS011;44465;53.206;-6.106;2022-08-21T12:16:42;5.22;;;1.55;;
58685;SDS011;44465;53.206;-6.106;2022-08-21T12:19:10;7.47;;;2.03;;
58685;SDS011;44465;53.206;-6.106;2022-08-21T12:21:53;9.65;;;1.73;;
58685;SDS011;44465;53.206;-6.106;2022-08-21T12:24:42;4.47;;;1.20;;
58685;SDS011;44465;53.206;-6.106;2022-08-21T12:29:50;9.80;;;2.15;;
58685;SDS011;44465;53.206;-6.106;2022-08-21T12:32:28;9.95;;;1.63;;
58685;SDS011;44465;53.206;-6.106;2022-08-21T12:40:11;9.55;;;1.50;;
58685;SDS011;44465;53.206;-6.106;2022-08-21T12:42:45;5.47;;;1.50;;
58685;SDS011;44465;53.206;-6.106;2022-08-21T12:46:00;17.73;;;1.67;;
58685;SDS011;44465;53.206;-6.106;2022-08-21T12:48:31;3.95;;;1.50;;
58685;SDS011;44465;53.206;-6.106;2022-08-21T12:51:56;3.97;;;1.10;;
58685;SDS011;44465;53.206;-6.106;2022-08-21T12:54:21;4.78;;;1.60;;
58685;SDS011;44465;53.206;-6.106;2022-08-21T12:56:55;4.68;;;1.13;;
58685;SDS011;44465;53.206;-6.106;2022-08-21T12:59:22;5.28;;;1.67;;
58685;SDS011;44465;53.206;-6.106;2022-08-21T13:01:49;7.93;;;1.60;;
58685;SDS011;44465;53.206;-6.106;2022-08-21T13:04:22;3.25;;;1.30;;
58685;SDS011;44465;53.206;-6.106;2022-08-21T13:09:25;5.80;;;1.05;;
58685;SDS011;44465;53.206;-6.106;2022-08-21T13:11:53;3.67;;;1.13;;
58685;SDS011;44465;53.206;-6.106;2022-08-21T13:14:30;3.88;;;1.38;;
58685;SDS011;44465;53.206;-6.106;2022-08-21T13:17:01;8.40;;;1.40;;
58685;SDS011;44465;53.206;-6.106;2022-08-21T13:19:29;3.65;;;1.30;;
58685;SDS011;44465;53.206;-6.106;2022-08-21T13:21:56;7.10;;;1.98;;
58685;SDS011;44465;53.206;-6.106;2022-08-21T13:24:27;4.82;;;1.15;;
58685;SDS011;44465;53.206;-6.106;2022-08-21T13:26:56;6.03;;;1.38;;
58685;SDS011;44465;53.206;-6.106;2022-08-21T13:29:23;3.75;;;1.35;;
58685;SDS011;44465;53.206;-6.106;2022-08-21T13:32:04;9.35;;;1.90;;
58685;SDS011;44465;53.206;-6.106;2022-08-21T13:34:35;3.78;;;1.17;;
58685;SDS011;44465;53.206;-6.106;2022-08-21T13:37:06;3.10;;;1.13;;
58685;SDS011;44465;53.206;-6.106;2022-08-21T13:39:33;5.65;;;1.70;;
58685;SDS011;44465;53.206;-6.106;2022-08-21T13:42:00;5.40;;;1.30;;
58685;SDS011;44465;53.206;-6.106;2022-08-21T13:47:02;14.55;;;3.25;;
58685;SDS011;44465;53.206;-6.106;2022-08-21T13:49:33;17.13;;;2.40;;
58685;SDS011;44465;53.206;-6.106;2022-08-21T13:52:02;8.20;;;1.80;;
58685;SDS011;44465;53.206;-6.106;2022-08-21T13:54:35;10.57;;;2.13;;
58685;SDS011;44465;53.206;-6.106;2022-08-21T13:57:02;14.07;;;2.10;;
58685;SDS011;44465;53.206;-6.106;2022-08-21T13:59:32;9.38;;;2.38;;
58685;SDS011;44465;53.206;-6.106;2022-08-21T14:02:13;11.25;;;2.15;;
58685;SDS011;44465;53.206;-6.106;2022-08-21T14:04:50;6.55;;;1.58;;
58685;SDS011;44465;53.206;-6.106;2022-08-21T14:07:35;15.43;;;2.17;;
58685;SDS011;44465;53.206;-6.106;2022-08-21T14:10:20;11.65;;;2.22;;
58685;SDS011;44465;53.206;-6.106;2022-08-21T14:12:52;15.90;;;2.92;;
58685;SDS011;44465;53.206;-6.106;2022-08-21T14:15:22;16.67;;;3.15;;
58685;SDS011;44465;53.206;-6.106;2022-08-21T14:17:50;13.52;;;1.90;;
58685;SDS011;44465;53.206;-6.106;2022-08-21T14:20:27;20.05;;;3.08;;
58685;SDS011;44465;53.206;-6.106;2022-08-21T14:22:55;30.17;;;3.50;;
58685;SDS011;44465;53.206;-6.106;2022-08-21T14:27:50;15.80;;;2.72;;
58685;SDS011;44465;53.206;-6.106;2022-08-21T14:32:46;19.15;;;2.28;;
58685;SDS011;44465;53.206;-6.106;2022-08-21T14:35:12;30.00;;;4.18;;
58685;SDS011;44465;53.206;-6.106;2022-08-21T14:37:41;22.90;;;3.55;;
58685;SDS011;44465;53.206;-6.106;2022-08-21T14:40:07;21.42;;;2.67;;
58685;SDS011;44465;53.206;-6.106;2022-08-21T14:42:34;24.77;;;4.13;;
58685;SDS011;44465;53.206;-6.106;2022-08-21T14:45:01;19.92;;;2.85;;
58685;SDS011;44465;53.206;-6.106;2022-08-21T14:47:33;16.60;;;2.65;;
58685;SDS011;44465;53.206;-6.106;2022-08-21T14:49:58;23.17;;;2.83;;
58685;SDS011;44465;53.206;-6.106;2022-08-21T14:52:24;16.40;;;2.95;;
58685;SDS011;44465;53.206;-6.106;2022-08-21T14:54:49;18.17;;;2.17;;
58685;SDS011;44465;53.206;-6.106;2022-08-21T14:57:15;18.48;;;2.90;;
58685;SDS011;44465;53.206;-6.106;2022-08-21T14:59:41;9.73;;;1.73;;
58685;SDS011;44465;53.206;-6.106;2022-08-21T15:02:06;11.63;;;2.13;;
58685;SDS011;44465;53.206;-6.106;2022-08-21T15:04:33;13.30;;;2.40;;
58685;SDS011;44465;53.206;-6.106;2022-08-21T15:06:59;16.15;;;2.17;;
58685;SDS011;44465;53.206;-6.106;2022-08-21T15:09:24;17.02;;;1.92;;
58685;SDS011;44465;53.206;-6.106;2022-08-21T15:11:51;9.18;;;2.08;;
58685;SDS011;44465;53.206;-6.106;2022-08-21T15:14:20;12.70;;;1.90;;
58685;SDS011;44465;53.206;-6.106;2022-08-21T15:16:49;10.82;;;2.20;;
58685;SDS011;44465;53.206;-6.106;2022-08-21T15:19:15;11.70;;;1.92;;
58685;SDS011;44465;53.206;-6.106;2022-08-21T15:21:41;12.60;;;1.88;;
58685;SDS011;44465;53.206;-6.106;2022-08-21T15:24:07;10.18;;;1.83;;
58685;SDS011;44465;53.206;-6.106;2022-08-21T15:26:33;9.95;;;2.22;;
58685;SDS011;44465;53.206;-6.106;2022-08-21T15:28:59;8.38;;;1.98;;
58685;SDS011;44465;53.206;-6.106;2022-08-21T15:31:26;12.70;;;1.73;;
58685;SDS011;44465;53.206;-6.106;2022-08-21T15:33:52;8.00;;;1.85;;
58685;SDS011;44465;53.206;-6.106;2022-08-21T15:36:18;6.00;;;1.42;;
58685;SDS011;44465;53.206;-6.106;2022-08-21T15:38:44;8.32;;;1.92;;
58685;SDS011;44465;53.206;-6.106;2022-08-21T15:41:10;4.63;;;1.33;;
58685;SDS011;44465;53.206;-6.106;2022-08-21T15:43:46;6.38;;;1.45;;
58685;SDS011;44465;53.206;-6.106;2022-08-21T15:46:15;5.47;;;2.00;;
58685;SDS011;44465;53.206;-6.106;2022-08-21T15:48:43;10.68;;;1.45;;
58685;SDS011;44465;53.206;-6.106;2022-08-21T15:51:11;4.93;;;1.10;;
58685;SDS011;44465;53.206;-6.106;2022-08-21T15:53:37;5.75;;;1.10;;
58685;SDS011;44465;53.206;-6.106;2022-08-21T15:56:06;8.02;;;1.52;;
58685;SDS011;44465;53.206;-6.106;2022-08-21T15:58:36;5.28;;;1.38;;
58685;SDS011;44465;53.206;-6.106;2022-08-21T16:01:03;5.43;;;1.23;;
58685;SDS011;44465;53.206;-6.106;2022-08-21T16:03:28;4.95;;;1.42;;
58685;SDS011;44465;53.206;-6.106;2022-08-21T16:05:54;3.47;;;1.20;;
58685;SDS011;44465;53.206;-6.106;2022-08-21T16:10:47;3.92;;;1.20;;
58685;SDS011;44465;53.206;-6.106;2022-08-21T16:13:21;3.63;;;1.17;;
58685;SDS011;44465;53.206;-6.106;2022-08-21T16:15:50;2.63;;;0.80;;
58685;SDS011;44465;53.206;-6.106;2022-08-21T16:18:16;4.10;;;0.90;;
58685;SDS011;44465;53.206;-6.106;2022-08-21T16:20:42;3.25;;;1.13;;
58685;SDS011;44465;53.206;-6.106;2022-08-21T16:23:08;5.70;;;1.10;;